createdAt,value
2018-08-17T00:01:03.311Z,22.29
2018-08-17T00:02:13.389Z,22.24
2018-08-17T00:03:23.199Z,22.26
2018-08-17T00:04:33.020Z,22.2
2018-08-17T00:05:43.094Z,22.16
2018-08-17T00:06:53.161Z,22.09
2018-08-17T00:08:03.236Z,22.04
2018-08-17T00:09:13.057Z,22.15
2018-08-17T00:10:22.398Z,22.12
2018-08-17T00:11:32.496Z,22.07
2018-08-17T00:12:42.566Z,22
2018-08-17T00:13:52.645Z,21.99
2018-08-17T00:15:02.828Z,21.94
2018-08-17T00:16:12.906Z,21.92
2018-08-17T00:17:22.721Z,21.93
2018-08-17T00:18:32.812Z,21.92
2018-08-17T00:19:42.359Z,21.9
2018-08-17T00:20:52.414Z,21.85
2018-08-17T00:22:02.546Z,21.86
2018-08-17T00:23:12.362Z,21.92
2018-08-17T00:24:22.440Z,21.83
2018-08-17T00:25:32.506Z,21.92
2018-08-17T00:26:42.582Z,21.89
2018-08-17T00:27:52.695Z,21.78
2018-08-17T00:29:02.500Z,21.89
2018-08-17T00:30:12.574Z,21.83
2018-08-17T00:31:22.657Z,21.8
2018-08-17T00:32:32.725Z,21.78
2018-08-17T00:33:42.840Z,21.76
2018-08-17T00:34:52.915Z,21.74
2018-08-17T00:36:02.762Z,21.77
2018-08-17T00:37:12.847Z,21.7
2018-08-17T00:38:22.656Z,21.7
2018-08-17T00:39:32.779Z,21.73
2018-08-17T00:40:42.855Z,21.7
2018-08-17T00:41:52.670Z,21.74
2018-08-17T00:43:02.788Z,21.58
2018-08-17T00:44:12.870Z,21.58
2018-08-17T00:45:22.737Z,21.68
2018-08-17T00:46:32.540Z,21.62
2018-08-17T00:47:42.366Z,21.61
2018-08-17T00:48:52.435Z,21.62
2018-08-17T00:50:02.524Z,21.59
2018-08-17T00:51:12.597Z,21.55
2018-08-17T00:52:22.689Z,21.64
2018-08-17T00:53:32.511Z,21.55
2018-08-17T00:54:42.590Z,21.55
2018-08-17T00:55:52.668Z,21.59
2018-08-17T00:57:02.484Z,21.61
2018-08-17T00:58:12.571Z,21.58
2018-08-17T00:59:22.633Z,21.61
2018-08-17T01:00:32.455Z,21.55
2018-08-17T01:01:42.535Z,21.62
2018-08-17T01:02:52.345Z,21.52
2018-08-17T01:04:02.413Z,21.61
2018-08-17T01:05:12.227Z,21.58
2018-08-17T01:06:22.298Z,21.56
2018-08-17T01:07:32.114Z,21.62
2018-08-17T01:08:42.190Z,21.58
2018-08-17T01:09:52.269Z,21.53
2018-08-17T01:11:02.087Z,21.52
2018-08-17T01:12:12.155Z,21.58
2018-08-17T01:13:22.227Z,21.51
2018-08-17T01:14:32.285Z,21.51
2018-08-17T01:15:42.099Z,21.45
2018-08-17T01:16:51.902Z,21.38
2018-08-17T01:18:01.979Z,21.43
2018-08-17T01:19:12.068Z,21.4
2018-08-17T01:20:22.134Z,21.41
2018-08-17T01:21:32.197Z,21.38
2018-08-17T01:22:42.286Z,21.25
2018-08-17T01:23:52.363Z,21.22
2018-08-17T01:25:02.454Z,21.19
2018-08-17T01:26:12.589Z,21.19
2018-08-17T01:27:22.392Z,21.22
2018-08-17T01:28:32.464Z,21.16
2018-08-17T01:29:42.557Z,21.16
2018-08-17T01:30:52.628Z,21.22
2018-08-17T01:32:02.810Z,21.22
2018-08-17T01:33:12.608Z,21.22
2018-08-17T01:34:22.419Z,21.19
2018-08-17T01:35:32.500Z,21.15
2018-08-17T01:36:42.578Z,21.19
2018-08-17T01:37:52.389Z,21.16
2018-08-17T01:39:02.214Z,21.13
2018-08-17T01:40:12.310Z,21.22
2018-08-17T01:41:22.137Z,21.21
2018-08-17T01:42:32.216Z,21.22
2018-08-17T01:43:42.338Z,21.19
2018-08-17T01:44:52.420Z,21.19
2018-08-17T01:46:02.475Z,21.06
2018-08-17T01:47:12.277Z,21.19
2018-08-17T01:48:22.358Z,21.08
2018-08-17T01:49:32.476Z,21.09
2018-08-17T01:50:42.542Z,21.08
2018-08-17T01:51:52.609Z,21.13
2018-08-17T01:53:02.791Z,21.09
2018-08-17T01:54:12.331Z,21.04
2018-08-17T01:55:22.409Z,20.98
2018-08-17T01:56:32.485Z,20.97
2018-08-17T01:57:42.554Z,20.91
2018-08-17T01:58:52.611Z,20.9
2018-08-17T02:00:02.781Z,20.83
2018-08-17T02:01:12.623Z,20.81
2018-08-17T02:02:22.690Z,20.85
2018-08-17T02:03:32.497Z,20.79
2018-08-17T02:04:42.574Z,20.81
2018-08-17T02:05:52.660Z,20.76
2018-08-17T02:07:03.041Z,20.79
2018-08-17T02:08:13.133Z,20.75
2018-08-17T02:09:22.951Z,20.71
2018-08-17T02:10:33.035Z,20.72
2018-08-17T02:11:42.850Z,20.68
2018-08-17T02:12:53.022Z,20.68
2018-08-17T02:14:03.293Z,20.74
2018-08-17T02:15:13.357Z,20.66
2018-08-17T02:16:23.436Z,20.6
2018-08-17T02:17:33.522Z,20.63
2018-08-17T02:18:43.620Z,20.58
2018-08-17T02:19:53.422Z,20.66
2018-08-17T02:21:03.517Z,20.54
2018-08-17T02:22:13.605Z,20.58
2018-08-17T02:23:23.675Z,20.51
2018-08-17T02:24:33.792Z,20.46
2018-08-17T02:25:43.683Z,20.51
2018-08-17T02:26:53.488Z,20.46
2018-08-17T02:28:03.569Z,20.53
2018-08-17T02:29:13.109Z,20.44
2018-08-17T02:30:23.235Z,20.46
2018-08-17T02:31:33.336Z,20.48
2018-08-17T02:32:43.419Z,20.42
2018-08-17T02:33:53.486Z,20.56
2018-08-17T02:35:03.303Z,20.42
2018-08-17T02:36:13.383Z,20.41
2018-08-17T02:37:23.492Z,20.49
2018-08-17T02:38:33.306Z,20.53
2018-08-17T02:39:43.379Z,20.51
2018-08-17T02:40:53.471Z,20.49
2018-08-17T02:42:03.549Z,20.51
2018-08-17T02:43:13.651Z,20.46
2018-08-17T02:44:23.734Z,20.51
2018-08-17T02:45:33.829Z,20.41
2018-08-17T02:46:43.905Z,20.4
2018-08-17T02:47:53.771Z,20.44
2018-08-17T02:49:03.591Z,20.42
2018-08-17T02:50:13.667Z,20.51
2018-08-17T02:51:23.747Z,20.46
2018-08-17T02:52:33.822Z,20.46
2018-08-17T02:53:43.922Z,20.44
2018-08-17T02:54:53.731Z,20.42
2018-08-17T02:56:03.806Z,20.37
2018-08-17T02:57:13.633Z,20.41
2018-08-17T02:58:23.732Z,20.34
2018-08-17T02:59:34.023Z,20.22
2018-08-17T03:00:44.400Z,20.27
2018-08-17T03:01:53.711Z,20.29
2018-08-17T03:35:01.887Z,17.77
2018-08-17T03:36:11.682Z,17.73
2018-08-17T03:37:21.970Z,17.68
2018-08-17T03:38:31.773Z,17.66
2018-08-17T03:39:41.851Z,17.69
2018-08-17T03:40:51.410Z,17.65
2018-08-17T03:42:01.230Z,17.8
2018-08-17T03:43:11.289Z,17.79
2018-08-17T03:44:21.099Z,17.88
2018-08-17T03:45:31.180Z,18.02
2018-08-17T03:46:40.997Z,18.01
2018-08-17T03:47:51.065Z,18.13
2018-08-17T03:49:01.145Z,18.26
2018-08-17T03:50:11.229Z,18.31
2018-08-17T03:51:21.316Z,18.31
2018-08-17T03:52:31.448Z,18.42
2018-08-17T03:53:41.255Z,18.53
2018-08-17T03:54:51.349Z,18.68
2018-08-17T03:56:01.438Z,18.68
2018-08-17T03:57:11.530Z,18.76
2018-08-17T03:58:21.592Z,18.86
2018-08-17T03:59:31.413Z,18.89
2018-08-17T04:00:41.498Z,18.93
2018-08-17T04:01:51.557Z,19
2018-08-17T04:03:01.629Z,19.07
2018-08-17T04:04:11.494Z,19.12
2018-08-17T04:05:21.564Z,19.27
2018-08-17T04:06:31.377Z,19.31
2018-08-17T04:07:41.448Z,19.42
2018-08-17T04:08:51.517Z,19.45
2018-08-17T04:10:01.645Z,19.46
2018-08-17T04:11:11.468Z,19.53
2018-08-17T04:12:21.541Z,19.7
2018-08-17T04:13:31.604Z,19.67
2018-08-17T04:14:41.696Z,19.71
2018-08-17T04:15:51.510Z,19.78
2018-08-17T04:17:01.608Z,19.82
2018-08-17T04:18:11.682Z,19.93
2018-08-17T04:19:21.499Z,19.98
2018-08-17T04:20:31.319Z,20.07
2018-08-17T04:21:41.420Z,20.1
2018-08-17T04:22:51.504Z,20.16
2018-08-17T04:24:01.661Z,20.29
2018-08-17T04:25:11.763Z,20.42
2018-08-17T04:26:21.562Z,20.49
2018-08-17T04:27:31.639Z,20.61
2018-08-17T04:28:41.700Z,20.71
2018-08-17T04:29:51.502Z,20.75
2018-08-17T04:31:01.626Z,20.79
2018-08-17T04:32:11.433Z,20.85
2018-08-17T04:33:21.513Z,20.9
2018-08-17T04:34:31.580Z,21.22
2018-08-17T04:35:41.656Z,21.38
2018-08-17T04:36:51.739Z,21.37
2018-08-17T04:38:01.809Z,21.37
2018-08-17T04:39:11.878Z,21.62
2018-08-17T04:40:21.947Z,22.18
2018-08-17T04:41:32.020Z,22.7
2018-08-17T04:42:42.103Z,22.99
2018-08-17T04:43:52.525Z,22.86
2018-08-17T04:45:02.341Z,22.66
2018-08-17T04:46:12.427Z,22.66
2018-08-17T04:47:22.485Z,22.82
2018-08-17T04:48:32.553Z,22.69
2018-08-17T04:49:42.641Z,22.73
2018-08-17T04:50:52.735Z,22.63
2018-08-17T04:52:02.554Z,22.61
2018-08-17T04:53:12.689Z,22.7
2018-08-17T04:54:22.743Z,23.25
2018-08-17T04:55:32.282Z,23.81
2018-08-17T04:56:42.358Z,24.51
2018-08-17T04:57:52.414Z,25.05
2018-08-17T04:59:02.507Z,25.63
2018-08-17T05:00:12.328Z,25.93
2018-08-17T05:01:22.149Z,26.24
2018-08-17T05:02:32.238Z,26.59
2018-08-17T05:03:42.312Z,26.93
2018-08-17T05:04:51.864Z,27.13
2018-08-17T05:06:01.684Z,27.34
2018-08-17T05:07:11.252Z,27.59
2018-08-17T05:08:21.067Z,27.69
2018-08-17T05:09:30.877Z,27.93
2018-08-17T05:10:40.697Z,28.14
2018-08-17T05:11:50.535Z,28.16
2018-08-17T05:13:00.629Z,28.39
2018-08-17T05:14:10.774Z,28.53
2018-08-17T05:15:20.868Z,28.65
2018-08-17T05:16:30.434Z,28.73
2018-08-17T05:17:39.985Z,28.92
2018-08-17T05:18:50.054Z,28.94
2018-08-17T05:20:00.333Z,29.01
2018-08-17T05:21:10.410Z,29.11
2018-08-17T05:22:20.508Z,29.15
2018-08-17T05:23:30.442Z,29.11
2018-08-17T05:24:40.362Z,29.08
2018-08-17T05:25:50.165Z,29.15
2018-08-17T05:26:59.975Z,29.17
2018-08-17T05:28:10.053Z,29.2
2018-08-17T05:29:20.133Z,29.23
2018-08-17T05:30:30.229Z,29.3
2018-08-17T05:31:40.050Z,29.24
2018-08-17T05:32:49.881Z,29.26
2018-08-17T05:33:59.973Z,29.33
2018-08-17T05:35:10.052Z,29.36
2018-08-17T05:36:19.948Z,29.32
2018-08-17T05:37:30.029Z,29.33
2018-08-17T05:38:40.108Z,29.32
2018-08-17T05:39:50.192Z,29.52
2018-08-17T05:41:00.917Z,29.48
2018-08-17T05:42:10.980Z,29.52
2018-08-17T05:43:20.791Z,29.48
2018-08-17T05:44:30.357Z,29.52
2018-08-17T05:45:40.441Z,29.55
2018-08-17T05:46:50.528Z,29.54
2018-08-17T05:48:00.617Z,29.57
2018-08-17T05:49:10.441Z,29.6
2018-08-17T05:50:20.522Z,29.61
2018-08-17T05:51:30.621Z,29.58
2018-08-17T05:52:40.710Z,29.42
2018-08-17T05:53:50.795Z,29.01
2018-08-17T05:55:00.877Z,28.43
2018-08-17T05:56:10.943Z,28.02
2018-08-17T05:57:21.016Z,27.69
2018-08-17T05:58:31.108Z,27.43
2018-08-17T05:59:41.192Z,27.13
2018-08-17T06:00:51.276Z,26.94
2018-08-17T06:02:01.353Z,26.91
2018-08-17T06:03:11.167Z,26.86
2018-08-17T06:04:21.226Z,26.78
2018-08-17T06:05:31.038Z,26.59
2018-08-17T06:06:41.111Z,26.59
2018-08-17T06:07:51.208Z,26.53
2018-08-17T06:09:01.293Z,26.42
2018-08-17T06:10:11.384Z,26.39
2018-08-17T06:11:22.377Z,26.37
2018-08-17T06:12:33.023Z,26.32
2018-08-17T06:13:42.861Z,26.35
2018-08-17T06:14:52.937Z,26.22
2018-08-17T06:16:03.014Z,26.2
2018-08-17T06:17:12.839Z,26.16
2018-08-17T06:18:22.672Z,26.19
2018-08-17T06:19:32.759Z,26.17
2018-08-17T06:20:42.845Z,26.19
2018-08-17T06:21:52.951Z,26.19
2018-08-17T06:23:03.029Z,26.15
2018-08-17T06:24:13.111Z,26.16
2018-08-17T06:25:23.229Z,26.22
2018-08-17T06:26:33.339Z,26.19
2018-08-17T06:27:43.131Z,26.16
2018-08-17T06:28:53.273Z,26.2
2018-08-17T06:30:03.356Z,26.17
2018-08-17T06:31:13.423Z,26.34
2018-08-17T06:32:23.512Z,26.3
2018-08-17T06:33:33.613Z,26.35
2018-08-17T06:34:43.694Z,26.39
2018-08-17T06:35:53.788Z,26.45
2018-08-17T06:37:04.067Z,26.44
2018-08-17T06:38:14.444Z,26.41
2018-08-17T06:39:24.279Z,26.49
2018-08-17T06:40:33.829Z,26.42
2018-08-17T06:41:43.926Z,26.44
2018-08-17T06:42:54.050Z,26.44
2018-08-17T06:44:03.866Z,26.45
2018-08-17T06:45:13.949Z,26.44
2018-08-17T06:46:24.030Z,26.56
2018-08-17T06:47:34.113Z,26.61
2018-08-17T06:48:44.194Z,26.57
2018-08-17T06:49:54.277Z,26.72
2018-08-17T06:51:04.668Z,26.75
2018-08-17T06:52:15.147Z,26.79
2018-08-17T06:53:25.242Z,26.84
2018-08-17T06:54:35.328Z,26.87
2018-08-17T06:55:44.884Z,26.94
2018-08-17T06:56:54.704Z,26.96
2018-08-17T06:58:04.670Z,27.08
2018-08-17T06:59:14.756Z,27.09
2018-08-17T07:00:24.848Z,27.13
2018-08-17T07:01:34.944Z,27.27
2018-08-17T07:02:45.451Z,27.34
2018-08-17T07:03:55.627Z,27.38
2018-08-17T07:05:05.719Z,27.57
2018-08-17T07:06:15.257Z,27.53
2018-08-17T07:07:25.346Z,27.59
2018-08-17T07:08:35.447Z,27.61
2018-08-17T07:09:45.629Z,27.61
2018-08-17T07:10:54.955Z,27.62
2018-08-17T07:12:05.186Z,27.57
2018-08-17T07:13:15.292Z,27.66
2018-08-17T07:14:25.097Z,27.66
2018-08-17T07:15:35.226Z,27.68
2018-08-17T07:16:45.680Z,27.91
2018-08-17T07:17:55.898Z,27.81
2018-08-17T07:19:05.986Z,28.02
2018-08-17T07:20:16.080Z,28.02
2018-08-17T07:21:26.021Z,28.02
2018-08-17T07:22:36.343Z,28.05
2018-08-17T07:23:46.449Z,27.99
2018-08-17T07:24:56.538Z,27.96
2018-08-17T07:26:06.631Z,27.99
2018-08-17T07:27:16.753Z,28.02
2018-08-17T07:28:26.591Z,28.16
2018-08-17T07:29:36.400Z,28.12
2018-08-17T07:30:46.506Z,28.16
2018-08-17T07:31:56.587Z,28.16
2018-08-17T07:33:06.418Z,28.23
2018-08-17T07:34:16.228Z,28.17
2018-08-17T07:35:26.309Z,28.26
2018-08-17T07:36:36.494Z,28.33
2018-08-17T07:37:46.319Z,28.41
2018-08-17T07:38:56.443Z,28.45
2018-08-17T07:40:06.561Z,28.53
2018-08-17T07:41:16.641Z,28.57
2018-08-17T07:42:26.724Z,28.65
2018-08-17T07:43:36.819Z,28.7
2018-08-17T07:44:46.912Z,28.64
2018-08-17T07:45:56.995Z,28.73
2018-08-17T07:47:07.072Z,28.78
2018-08-17T07:48:17.722Z,28.73
2018-08-17T07:49:28.502Z,28.88
2018-08-17T07:50:38.612Z,28.88
2018-08-17T07:51:48.734Z,28.85
2018-08-17T07:52:58.836Z,28.97
2018-08-17T07:54:08.653Z,28.94
2018-08-17T07:55:18.741Z,28.95
2018-08-17T07:56:28.852Z,29.02
2018-08-17T07:57:38.667Z,29.08
2018-08-17T07:58:48.764Z,29.03
2018-08-17T07:59:58.995Z,29.05
2018-08-17T08:01:09.154Z,29.08
2018-08-17T08:02:19.245Z,29.24
2018-08-17T08:03:29.064Z,29.23
2018-08-17T08:04:39.194Z,29.33
2018-08-17T08:05:49.005Z,29.38
2018-08-17T08:06:58.829Z,29.3
2018-08-17T08:08:08.916Z,29.36
2018-08-17T08:09:19.015Z,29.36
2018-08-17T08:10:29.086Z,29.35
2018-08-17T08:11:39.191Z,29.32
2018-08-17T08:12:49.261Z,29.43
2018-08-17T08:13:59.161Z,29.42
2018-08-17T08:15:08.989Z,29.51
2018-08-17T08:16:19.164Z,29.5
2018-08-17T08:17:29.253Z,29.55
2018-08-17T08:18:39.354Z,29.63
2018-08-17T08:19:49.441Z,29.66
2018-08-17T08:20:59.517Z,29.67
2018-08-17T08:22:09.603Z,29.77
2018-08-17T08:23:19.417Z,29.73
2018-08-17T08:24:29.536Z,29.88
2018-08-17T08:25:39.641Z,29.88
2018-08-17T08:26:49.735Z,30.03
2018-08-17T08:27:59.845Z,29.94
2018-08-17T08:29:09.749Z,30
2018-08-17T08:30:19.891Z,30.02
2018-08-17T08:31:29.751Z,30.07
2018-08-17T08:32:39.786Z,30.02
2018-08-17T08:33:49.616Z,30.1
2018-08-17T08:34:59.734Z,30.11
2018-08-17T08:36:09.833Z,30.14
2018-08-17T08:37:19.684Z,30.19
2018-08-17T08:38:29.775Z,30.18
2018-08-17T08:39:39.874Z,30.26
2018-08-17T08:40:50.034Z,30.31
2018-08-17T08:42:00.142Z,30.37
2018-08-17T08:43:09.990Z,30.31
2018-08-17T08:44:20.094Z,30.48
2018-08-17T08:45:30.433Z,30.6
2018-08-17T08:46:40.458Z,30.7
2018-08-17T08:47:50.565Z,30.75
2018-08-17T08:49:00.681Z,30.77
2018-08-17T08:50:10.792Z,30.81
2018-08-17T08:51:20.641Z,30.84
2018-08-17T08:52:30.503Z,30.96
2018-08-17T08:53:40.373Z,30.99
2018-08-17T08:54:50.512Z,31.06
2018-08-17T08:56:00.801Z,31.21
2018-08-17T08:57:10.774Z,31.21
2018-08-17T08:58:20.886Z,31.23
2018-08-17T08:59:31.003Z,31.26
2018-08-17T09:00:41.187Z,31.4
2018-08-17T09:01:51.686Z,31.44
2018-08-17T09:03:01.852Z,31.43
2018-08-17T09:04:11.960Z,31.58
2018-08-17T09:05:22.323Z,31.59
2018-08-17T09:06:32.430Z,31.63
2018-08-17T09:07:42.289Z,31.7
2018-08-17T09:08:52.416Z,31.77
2018-08-17T09:10:02.313Z,31.75
2018-08-17T09:11:12.404Z,31.88
2018-08-17T09:12:22.534Z,31.77
2018-08-17T09:13:32.664Z,31.9
2018-08-17T09:14:42.896Z,32.03
2018-08-17T09:15:52.732Z,32
2018-08-17T09:17:02.943Z,32.1
2018-08-17T09:18:13.069Z,32.19
2018-08-17T09:19:23.172Z,32.2
2018-08-17T09:20:33.327Z,32.32
2018-08-17T09:21:43.700Z,32.3
2018-08-17T09:22:53.632Z,32.34
2018-08-17T09:24:03.747Z,32.38
2018-08-17T09:25:13.875Z,32.49
2018-08-17T09:26:23.730Z,32.5
2018-08-17T09:27:33.839Z,32.46
2018-08-17T09:28:43.681Z,32.65
2018-08-17T09:29:53.519Z,32.67
2018-08-17T09:31:03.670Z,32.71
2018-08-17T09:32:13.521Z,32.65
2018-08-17T09:33:23.638Z,32.81
2018-08-17T09:34:33.760Z,32.79
2018-08-17T09:35:43.851Z,32.86
2018-08-17T09:36:53.980Z,32.87
2018-08-17T09:38:04.085Z,32.83
2018-08-17T09:39:14.212Z,32.83
2018-08-17T09:40:23.526Z,32.86
2018-08-17T09:41:33.718Z,32.84
2018-08-17T09:42:43.946Z,32.86
2018-08-17T09:43:54.055Z,32.87
2018-08-17T09:45:03.937Z,32.81
2018-08-17T09:46:14.045Z,32.86
2018-08-17T09:47:24.220Z,32.81
2018-08-17T09:48:34.362Z,32.93
2018-08-17T09:49:44.499Z,32.87
2018-08-17T09:50:54.389Z,32.9
2018-08-17T09:52:04.274Z,32.86
2018-08-17T09:53:14.131Z,32.96
2018-08-17T09:54:24.304Z,33.05
2018-08-17T09:55:34.164Z,33.2
2018-08-17T09:56:44.340Z,33.2
2018-08-17T09:57:54.483Z,33.21
2018-08-17T09:59:04.644Z,33.23
2018-08-17T10:00:14.751Z,33.28
2018-08-17T10:01:24.847Z,33.36
2018-08-17T10:02:34.952Z,33.39
2018-08-17T10:03:45.222Z,33.4
2018-08-17T10:04:55.550Z,33.4
2018-08-17T10:06:06.176Z,33.55
2018-08-17T10:07:16.018Z,33.55
2018-08-17T10:08:26.143Z,33.58
2018-08-17T10:09:50.888Z,33.61
2018-08-17T10:11:01.003Z,33.68
2018-08-17T10:12:11.127Z,33.71
2018-08-17T10:13:21.248Z,33.85
2018-08-17T10:14:31.357Z,33.95
2018-08-17T10:15:41.485Z,33.89
2018-08-17T10:16:51.557Z,33.97
2018-08-17T10:18:01.691Z,33.9
2018-08-17T10:19:11.812Z,34.02
2018-08-17T10:20:21.956Z,34.03
2018-08-17T10:21:33.663Z,34.1
2018-08-17T10:22:45.623Z,34.05
2018-08-17T10:23:55.745Z,34.02
2018-08-17T10:25:06.016Z,34.08
2018-08-17T10:26:15.888Z,34.11
2018-08-17T10:27:25.758Z,34.14
2018-08-17T10:28:35.890Z,34.24
2018-08-17T10:29:45.787Z,34.22
2018-08-17T10:30:55.916Z,34.24
2018-08-17T10:32:05.756Z,34.22
2018-08-17T10:33:15.867Z,34.26
2018-08-17T10:34:25.983Z,34.27
2018-08-17T10:35:36.186Z,34.29
2018-08-17T10:36:46.300Z,34.26
2018-08-17T10:37:56.398Z,34.27
2018-08-17T10:39:06.557Z,34.36
2018-08-17T10:40:16.714Z,34.45
2018-08-17T10:41:26.545Z,34.48
2018-08-17T10:42:36.437Z,34.45
2018-08-17T10:43:46.555Z,34.34
2018-08-17T10:44:56.643Z,34.36
2018-08-17T10:46:06.731Z,34.36
2018-08-17T10:47:16.821Z,34.37
2018-08-17T10:48:26.648Z,34.43
2018-08-17T10:49:36.734Z,34.55
2018-08-17T10:50:46.815Z,34.66
2018-08-17T10:51:56.907Z,34.77
2018-08-17T10:53:07.028Z,34.75
2018-08-17T10:54:17.376Z,34.91
2018-08-17T10:55:27.373Z,34.96
2018-08-17T10:56:37.422Z,35.12
2018-08-17T10:57:47.277Z,35.08
2018-08-17T10:58:57.426Z,35.06
2018-08-17T11:00:07.269Z,35.06
2018-08-17T11:01:17.118Z,35.05
2018-08-17T11:02:27.223Z,35.11
2018-08-17T11:03:37.330Z,35.06
2018-08-17T11:04:47.434Z,35.05
2018-08-17T11:05:57.288Z,34.97
2018-08-17T11:07:07.393Z,34.93
2018-08-17T11:08:17.028Z,34.96
2018-08-17T11:09:27.154Z,35.09
2018-08-17T11:10:37.267Z,35.02
2018-08-17T11:11:47.385Z,35.08
2018-08-17T11:12:57.488Z,34.99
2018-08-17T11:14:07.716Z,35.05
2018-08-17T11:15:17.565Z,35.08
2018-08-17T11:16:27.737Z,35.11
2018-08-17T11:17:37.887Z,35.12
2018-08-17T11:18:48.047Z,34.94
2018-08-17T11:19:58.184Z,34.96
2018-08-17T11:21:08.845Z,34.96
2018-08-17T11:22:18.964Z,35.02
2018-08-17T11:23:29.067Z,35.04
2018-08-17T11:24:39.233Z,35.06
2018-08-17T11:25:49.419Z,35.09
2018-08-17T11:26:59.010Z,35.08
2018-08-17T11:28:08.893Z,35.01
2018-08-17T11:29:19.056Z,35.05
2018-08-17T11:30:29.170Z,35.2
2018-08-17T11:31:39.277Z,35.23
2018-08-17T11:32:49.119Z,35.31
2018-08-17T11:33:59.503Z,35.24
2018-08-17T11:35:09.642Z,35.34
2018-08-17T11:36:19.504Z,35.33
2018-08-17T11:37:29.615Z,35.45
2018-08-17T11:38:39.731Z,35.55
2018-08-17T11:39:50.296Z,35.4
2018-08-17T11:41:00.518Z,35.47
2018-08-17T11:42:10.099Z,35.4
2018-08-17T11:43:19.962Z,35.4
2018-08-17T11:44:30.135Z,35.39
2018-08-17T11:45:39.991Z,35.42
2018-08-17T11:46:50.114Z,35.52
2018-08-17T11:47:59.960Z,35.55
2018-08-17T11:49:09.807Z,35.47
2018-08-17T11:50:19.677Z,35.55
2018-08-17T11:51:29.800Z,35.62
2018-08-17T11:52:39.926Z,35.67
2018-08-17T11:53:49.932Z,35.69
2018-08-17T11:54:59.971Z,35.65
2018-08-17T11:56:10.077Z,35.72
2018-08-17T11:57:20.234Z,35.65
2018-08-17T11:58:30.349Z,35.65
2018-08-17T11:59:40.218Z,35.72
2018-08-17T12:00:50.328Z,35.62
2018-08-17T12:02:00.770Z,35.61
2018-08-17T12:03:11.163Z,35.64
2018-08-17T12:04:21.291Z,35.52
2018-08-17T12:05:31.177Z,35.52
2018-08-17T12:06:41.298Z,35.5
2018-08-17T12:07:51.209Z,35.62
2018-08-17T12:09:01.327Z,35.58
2018-08-17T12:10:11.437Z,35.58
2018-08-17T12:11:21.551Z,35.62
2018-08-17T12:12:31.651Z,35.72
2018-08-17T12:13:41.782Z,35.82
2018-08-17T12:14:51.620Z,35.96
2018-08-17T12:16:01.740Z,36.01
2018-08-17T12:17:11.312Z,36.19
2018-08-17T12:18:21.453Z,36.06
2018-08-17T12:19:31.599Z,36.19
2018-08-17T12:20:41.446Z,36.18
2018-08-17T12:21:51.589Z,36.22
2018-08-17T12:23:01.701Z,36.19
2018-08-17T12:24:12.001Z,36.09
2018-08-17T12:25:22.329Z,36.12
2018-08-17T12:26:32.449Z,35.99
2018-08-17T12:27:42.559Z,35.99
2018-08-17T12:28:52.655Z,35.94
2018-08-17T12:30:02.841Z,35.95
2018-08-17T12:31:12.979Z,35.96
2018-08-17T12:32:22.910Z,36.08
2018-08-17T12:33:33.019Z,36.14
2018-08-17T12:34:43.124Z,36.17
2018-08-17T12:35:53.317Z,36.18
2018-08-17T12:37:03.430Z,36.19
2018-08-17T12:38:14.235Z,36.21
2018-08-17T12:39:24.367Z,36.28
2018-08-17T12:40:34.212Z,36.36
2018-08-17T12:41:44.333Z,36.36
2018-08-17T12:42:54.526Z,36.33
2018-08-17T12:44:04.631Z,36.34
2018-08-17T12:45:14.745Z,36.39
2018-08-17T12:46:25.005Z,36.34
2018-08-17T12:47:34.674Z,36.39
2018-08-17T12:48:45.082Z,36.44
2018-08-17T12:49:55.209Z,36.39
2018-08-17T12:51:05.775Z,36.3
2018-08-17T12:52:15.699Z,36.32
2018-08-17T12:53:25.653Z,36.3
2018-08-17T12:54:35.592Z,36.26
2018-08-17T12:55:45.696Z,36.21
2018-08-17T12:56:55.264Z,36.28
2018-08-17T12:58:05.552Z,36.36
2018-08-17T12:59:16.008Z,36.26
2018-08-17T13:00:26.127Z,36.33
2018-08-17T13:01:36.217Z,36.41
2018-08-17T13:02:46.315Z,36.3
2018-08-17T13:03:56.484Z,36.28
2018-08-17T13:05:06.355Z,36.21
2018-08-17T13:06:16.496Z,36.24
2018-08-17T13:07:26.323Z,36.24
2018-08-17T13:08:36.435Z,36.28
2018-08-17T13:09:46.517Z,36.26
2018-08-17T13:10:57.056Z,36.33
2018-08-17T13:12:06.926Z,36.21
2018-08-17T13:13:17.042Z,36.37
2018-08-17T13:14:26.866Z,36.34
2018-08-17T13:15:36.973Z,36.36
2018-08-17T13:16:47.064Z,36.37
2018-08-17T13:17:57.138Z,36.33
2018-08-17T13:19:07.234Z,36.36
2018-08-17T13:20:17.366Z,36.47
2018-08-17T13:21:27.522Z,36.44
2018-08-17T13:22:37.641Z,36.46
2018-08-17T13:23:47.801Z,36.49
2018-08-17T13:24:57.887Z,36.53
2018-08-17T13:26:08.063Z,36.51
2018-08-17T13:27:18.155Z,36.51
2018-08-17T13:28:27.986Z,36.56
2018-08-17T13:29:38.083Z,36.44
2018-08-17T13:30:48.264Z,36.44
2018-08-17T13:31:58.093Z,36.46
2018-08-17T13:33:08.276Z,36.46
2018-08-17T13:34:18.416Z,36.4
2018-08-17T13:35:28.079Z,36.47
2018-08-17T13:36:38.179Z,36.51
2018-08-17T13:37:48.491Z,36.52
2018-08-17T13:38:58.344Z,36.52
2018-08-17T13:40:08.658Z,36.61
2018-08-17T13:41:18.807Z,36.58
2018-08-17T13:42:29.012Z,36.58
2018-08-17T13:43:39.131Z,36.63
2018-08-17T13:44:49.259Z,36.55
2018-08-17T13:45:59.371Z,36.62
2018-08-17T13:47:09.531Z,36.61
2018-08-17T13:48:19.664Z,36.52
2018-08-17T13:49:29.749Z,36.43
2018-08-17T13:50:39.860Z,36.36
2018-08-17T13:51:49.963Z,36.34
2018-08-17T13:53:00.112Z,36.33
2018-08-17T13:54:10.199Z,36.21
2018-08-17T13:55:20.425Z,36.21
2018-08-17T13:56:30.741Z,36.14
2018-08-17T13:57:40.852Z,36.15
2018-08-17T13:58:50.964Z,36.18
2018-08-17T14:00:01.094Z,36.08
2018-08-17T14:01:11.200Z,36.05
2018-08-17T14:02:21.633Z,35.94
2018-08-17T14:03:31.476Z,35.96
2018-08-17T14:04:41.597Z,35.96
2018-08-17T14:05:51.684Z,35.96
2018-08-17T14:07:01.792Z,35.9
2018-08-17T14:08:12.024Z,35.82
2018-08-17T14:09:22.242Z,35.79
2018-08-17T14:10:32.122Z,35.83
2018-08-17T14:11:41.946Z,35.83
2018-08-17T14:12:52.050Z,35.82
2018-08-17T14:14:01.880Z,35.89
2018-08-17T14:15:11.997Z,35.83
2018-08-17T14:16:22.141Z,35.82
2018-08-17T14:17:32.256Z,35.76
2018-08-17T14:18:42.352Z,35.82
2018-08-17T14:19:52.438Z,35.84
2018-08-17T14:21:02.276Z,35.83
2018-08-17T14:22:12.495Z,35.79
2018-08-17T14:23:22.429Z,35.82
2018-08-17T14:24:32.499Z,35.86
2018-08-17T14:25:42.614Z,35.79
2018-08-17T14:26:52.461Z,35.77
2018-08-17T14:28:02.560Z,35.76
2018-08-17T14:29:12.640Z,35.82
2018-08-17T14:30:22.747Z,35.72
2018-08-17T14:31:32.597Z,35.64
2018-08-17T14:32:42.696Z,35.61
2018-08-17T14:33:52.799Z,35.61
2018-08-17T14:35:03.136Z,35.53
2018-08-17T14:36:13.316Z,35.5
2018-08-17T14:37:23.409Z,35.58
2018-08-17T14:38:32.688Z,35.57
2018-08-17T14:39:42.530Z,35.6
2018-08-17T14:40:53.811Z,35.57
2018-08-17T14:42:03.899Z,35.52
2018-08-17T14:43:14.245Z,35.55
2018-08-17T14:44:25.518Z,35.64
2018-08-17T14:45:35.347Z,35.62
2018-08-17T14:46:45.372Z,35.67
2018-08-17T14:47:55.138Z,35.64
2018-08-17T14:49:05.743Z,35.64
2018-08-17T14:50:15.800Z,35.6
2018-08-17T14:51:25.886Z,35.52
2018-08-17T14:52:35.913Z,35.52
2018-08-17T14:53:45.990Z,35.53
2018-08-17T14:54:56.030Z,35.42
2018-08-17T14:56:06.097Z,35.45
2018-08-17T14:57:16.113Z,35.39
2018-08-17T14:58:26.145Z,35.34
2018-08-17T14:59:35.909Z,35.31
2018-08-17T15:00:45.762Z,35.34
2018-08-17T15:01:55.528Z,35.31
2018-08-17T15:03:06.525Z,35.27
2018-08-17T15:04:16.563Z,35.27
2018-08-17T15:05:26.589Z,35.28
2018-08-17T15:06:36.621Z,35.2
2018-08-17T15:07:46.966Z,35.28
2018-08-17T15:08:56.956Z,35.26
2018-08-17T15:10:07.036Z,35.24
2018-08-17T15:11:16.822Z,35.2
2018-08-17T15:12:26.597Z,35.16
2018-08-17T15:13:37.107Z,35.16
2018-08-17T15:14:47.221Z,35.2
2018-08-17T15:15:57.255Z,35.11
2018-08-17T15:17:07.286Z,35.12
2018-08-17T15:18:17.314Z,35.11
2018-08-17T15:19:27.394Z,35.08
2018-08-17T15:20:37.186Z,35.09
2018-08-17T15:21:47.220Z,35.04
2018-08-17T15:22:57.268Z,34.89
2018-08-17T15:24:07.259Z,34.97
2018-08-17T15:25:17.028Z,34.87
2018-08-17T15:26:26.914Z,34.89
2018-08-17T15:27:36.764Z,34.91
2018-08-17T15:28:47.185Z,34.89
2018-08-17T15:29:57.215Z,34.9
2018-08-17T15:31:07.258Z,34.87
2018-08-17T15:32:17.270Z,34.89
2018-08-17T15:33:27.306Z,34.81
2018-08-17T15:34:37.350Z,34.83
2018-08-17T15:35:47.127Z,34.77
2018-08-17T15:36:56.904Z,34.72